DIRECCIÓN GENERAL DE AERONÁUTICA CIVIL
DIRECCIÓN METEOROLÓGICA DE CHILE
INFORMACIÓN METAR Y TAF

FIR SANTIAGO

Estación: SCSE
METAR SCSE 281300Z 26003KT 0600 FG VV000 09/09 Q1014=

TAF SCSE 281015Z 2812/2912 13005KT 0500 FG OVC003 TX14/2818Z TN09/ 2910Z BECMG 2814/2816 29008KT 2000 BR BKN006 BECMG 2816/2818 7000 BKN010 TEMPO 2818/2822 9999 SCT012 BECMG 2900/2902 12004KT BKN010 TEMPO 2906/2910 4000 BR OVC005=

Estación: SCER
METAR SCER 161100Z 00000KT 7000 OVC014 12/10 Q1015=

TAF SCER NIL=

Estación: SCRD
METAR SCRD 281300Z 35005KT 0100 FG VV000 06/06 Q1015=

TAF SCRD 281015Z 2812/2824 30005KT 0500 FG BKN002 TX15/2818Z TN06/ 2812Z BECMG 2815/2817 2000 BR BKN005 BECMG 2819/2821 33006KT 7000 NSC BECMG 2821/2823 0800 FG BKN003=

Estación: SCVM
METAR SCVM 281300Z 15003KT 0050 FG VV000 06/06 Q1016=

TAF SCVM 281015Z 2812/2912 15004KT 5000 BR NSC TX15/2818Z TN08/2910Z TEMPO 2812/2816 00000KT 0500 FG BKN002 BECMG 2816/2818 7000 SCT010 BECMG 2818/2820 30008KT CAVOK BECMG 2900/2902 15004KT SCT012 BECMG 2904/2906 VRB02KT 5000 BR BKN008=

Estación: SCTB
METAR SCTB 281300Z 06003KT CAVOK 07/02 Q1016=

TAF SCTB 281015Z 2812/2824 VRB02KT 8000 NSC TX23/2818Z TN04/2812Z BECMG 2815/2817 22005KT CAVOK TEMPO 2820/2822 6000 NSC=

Estación: SCEL
METAR SCEL 281300Z VRB02KT 5000 HZ NSC 03/01 Q1015 NOSIG=

TAF SCEL 281015Z 2812/2912 VRB02KT 7000 NSC TX23/2818Z TN03/2910Z TEMPO 2812/2814 4000 HZ BECMG 2817/2819 19006KT CAVOK BECMG 2900/2902 15005KT BECMG 2906/2908 7000 NSC TEMPO 2908/2912 VRB02KT 0800 BCFG SCT003=

Estación: SCSN
METAR SCSN 281300Z 09004KT 0200 FG OVC002 06/06 Q1016=

TAF SCSN 281015Z 2812/2824 13004KT 0500 FG BKN003 TX14/2818Z TN04/ 2812Z BECMG 2815/2817 2000 BR BKN005 BECMG 2818/2820 26008KT 5000 HZ BKN010 TEMPO 2819/2822 7000 NSC=

Estación: SCRG
METAR SCRG 281300Z 02003KT 3000 HZ SKC 03/01 Q1014=

TAF SCRG 281015Z 2812/2824 VRB02KT 7000 NSC TX23/2818Z TN03/2812Z TEMPO 2812/2814 3000 BR BECMG 2816/2818 17008KT CAVOK=

Estación: SCIC
METAR SCIC 281300Z 18002KT 0100 FG VV001 00/00 Q1015=

TAF SCIC 281015Z 2812/2824 15003KT 5000 BR NSC TX15/2818Z TN02/2812Z TEMPO 2812/2814 2000 BR BECMG 2815/2817 22005KT 7000 BECMG 2818/2820 30005KT CAVOK=

Estación: SCCH
METAR SCCH 281300Z 01002KT 0100 FG VV000 01/01 Q1015=

TAF SCCH 281015Z 2812/2824 10004KT 0500 FG BKN001 TX15/2818Z TNM0/ 2812Z BECMG 2815/2817 2000 BR BKN005 BECMG 2817/2819 29005KT 5000 HZ NSC BECMG 2819/2821 7000=

Estación: SCIE
SPECI SCIE 281302Z 14004KT 100V160 0400 R02/0375V0600D RMID/0400V0550D FG OVC001 05/05 Q1016=

TAF SCIE 281015Z 2812/2912 15005KT 0500 FG OVC002 TX13/2818Z TN07/ 2910Z BECMG 2814/2816 20005KT 2000 BR SCT005 BECMG 2816/2818 5000 HZ NSC BECMG 2818/2820 23008KT 8000 BECMG 2900/2902 27005KT BKN010 BECMG 2904/2906 9999 SCT010 BKN015 TEMPO 2908/2912 32005KT OVC015=

Estación: SCGE
METAR SCGE 281300Z 00000KT 0050 FG VV000 M02/M02 Q1016=

TAF SCGE 281015Z 2812/2824 VRB02KT 0500 FG BKN001 TX14/2818Z TN00/ 2812Z BECMG 2814/2816 3000 BR SCT005 BECMG 2816/2818 01005KT 7000 NSC =


Volver